sensor_id;sensor_type;location;lat;lon;timestamp;pressure;altitude;pressure_sealevel;temperature;humidity
77583;BME280;66726;52.388;9.986;2023-12-20T00:01:25;100407.88;;;6.53;100.00
77583;BME280;66726;52.388;9.986;2023-12-20T00:03:53;100404.50;;;6.51;100.00
77583;BME280;66726;52.388;9.986;2023-12-20T00:06:21;100401.00;;;6.51;100.00
77583;BME280;66726;52.388;9.986;2023-12-20T00:08:50;100410.13;;;6.48;100.00
77583;BME280;66726;52.388;9.986;2023-12-20T00:11:18;100398.09;;;6.44;100.00
77583;BME280;66726;52.388;9.986;2023-12-20T00:13:46;100387.44;;;6.44;100.00
77583;BME280;66726;52.388;9.986;2023-12-20T00:16:17;100396.44;;;6.43;100.00
77583;BME280;66726;52.388;9.986;2023-12-20T00:18:47;100400.06;;;6.42;100.00
77583;BME280;66726;52.388;9.986;2023-12-20T00:21:15;100402.03;;;6.40;100.00
77583;BME280;66726;52.388;9.986;2023-12-20T00:23:43;100395.16;;;6.38;100.00
77583;BME280;66726;52.388;9.986;2023-12-20T00:26:12;100405.94;;;6.36;100.00
77583;BME280;66726;52.388;9.986;2023-12-20T00:28:40;100403.28;;;6.36;100.00
77583;BME280;66726;52.388;9.986;2023-12-20T00:31:09;100408.75;;;6.35;100.00
77583;BME280;66726;52.388;9.986;2023-12-20T00:33:38;100408.91;;;6.33;100.00
77583;BME280;66726;52.388;9.986;2023-12-20T00:36:12;100411.28;;;6.27;100.00
77583;BME280;66726;52.388;9.986;2023-12-20T00:38:40;100417.41;;;6.27;100.00
77583;BME280;66726;52.388;9.986;2023-12-20T00:41:08;100417.69;;;6.24;100.00
77583;BME280;66726;52.388;9.986;2023-12-20T00:43:36;100412.66;;;6.21;100.00
77583;BME280;66726;52.388;9.986;2023-12-20T00:46:04;100415.88;;;6.25;100.00
77583;BME280;66726;52.388;9.986;2023-12-20T00:48:32;100415.19;;;6.23;100.00
77583;BME280;66726;52.388;9.986;2023-12-20T00:51:01;100424.25;;;6.20;100.00
77583;BME280;66726;52.388;9.986;2023-12-20T00:53:30;100430.44;;;6.21;100.00
77583;BME280;66726;52.388;9.986;2023-12-20T00:55:58;100423.88;;;6.15;100.00
77583;BME280;66726;52.388;9.986;2023-12-20T00:58:26;100419.22;;;6.17;100.00
77583;BME280;66726;52.388;9.986;2023-12-20T01:00:55;100424.72;;;6.16;100.00
77583;BME280;66726;52.388;9.986;2023-12-20T01:03:23;100430.88;;;6.16;100.00
77583;BME280;66726;52.388;9.986;2023-12-20T01:05:51;100423.16;;;6.13;100.00
77583;BME280;66726;52.388;9.986;2023-12-20T01:08:19;100420.22;;;6.06;100.00
77583;BME280;66726;52.388;9.986;2023-12-20T01:10:49;100414.09;;;6.06;100.00
77583;BME280;66726;52.388;9.986;2023-12-20T01:13:17;100416.31;;;6.10;100.00
77583;BME280;66726;52.388;9.986;2023-12-20T01:15:45;100420.50;;;6.13;100.00
77583;BME280;66726;52.388;9.986;2023-12-20T01:18:15;100418.84;;;6.12;100.00
77583;BME280;66726;52.388;9.986;2023-12-20T01:20:43;100416.19;;;6.12;100.00
77583;BME280;66726;52.388;9.986;2023-12-20T01:23:12;100416.03;;;6.04;100.00
77583;BME280;66726;52.388;9.986;2023-12-20T01:25:40;100419.66;;;6.03;100.00
77583;BME280;66726;52.388;9.986;2023-12-20T01:28:09;100410.03;;;6.02;100.00
77583;BME280;66726;52.388;9.986;2023-12-20T01:30:37;100411.00;;;6.01;100.00
77583;BME280;66726;52.388;9.986;2023-12-20T01:33:06;100413.09;;;5.97;100.00
77583;BME280;66726;52.388;9.986;2023-12-20T01:35:34;100421.34;;;5.94;100.00
77583;BME280;66726;52.388;9.986;2023-12-20T01:38:02;100421.19;;;5.96;100.00
77583;BME280;66726;52.388;9.986;2023-12-20T01:40:30;100423.03;;;5.95;100.00
77583;BME280;66726;52.388;9.986;2023-12-20T01:42:59;100426.50;;;5.96;100.00
77583;BME280;66726;52.388;9.986;2023-12-20T01:45:29;100423.84;;;5.96;100.00
77583;BME280;66726;52.388;9.986;2023-12-20T01:47:59;100433.50;;;5.97;100.00
77583;BME280;66726;52.388;9.986;2023-12-20T01:50:28;100436.72;;;5.91;100.00
77583;BME280;66726;52.388;9.986;2023-12-20T01:53:01;100432.53;;;5.88;100.00
77583;BME280;66726;52.388;9.986;2023-12-20T01:55:33;100428.88;;;5.89;100.00
77583;BME280;66726;52.388;9.986;2023-12-20T01:58:03;100430.72;;;5.89;100.00
77583;BME280;66726;52.388;9.986;2023-12-20T02:00:34;100429.53;;;5.82;100.00
77583;BME280;66726;52.388;9.986;2023-12-20T02:03:04;100424.75;;;5.76;100.00
77583;BME280;66726;52.388;9.986;2023-12-20T02:05:34;100427.41;;;5.76;100.00
77583;BME280;66726;52.388;9.986;2023-12-20T02:08:03;100427.28;;;5.77;100.00
77583;BME280;66726;52.388;9.986;2023-12-20T02:10:32;100429.09;;;5.77;100.00
77583;BME280;66726;52.388;9.986;2023-12-20T02:13:00;100431.06;;;5.75;100.00
77583;BME280;66726;52.388;9.986;2023-12-20T02:15:29;100425.75;;;5.75;100.00
77583;BME280;66726;52.388;9.986;2023-12-20T02:17:58;100428.94;;;5.69;100.00
77583;BME280;66726;52.388;9.986;2023-12-20T02:20:27;100423.50;;;5.70;100.00
77583;BME280;66726;52.388;9.986;2023-12-20T02:22:56;100415.94;;;5.66;100.00
77583;BME280;66726;52.388;9.986;2023-12-20T02:25:24;100420.00;;;5.70;100.00
77583;BME280;66726;52.388;9.986;2023-12-20T02:27:52;100416.22;;;5.62;100.00
77583;BME280;66726;52.388;9.986;2023-12-20T02:30:21;100407.00;;;5.67;100.00
77583;BME280;66726;52.388;9.986;2023-12-20T02:32:50;100396.94;;;5.60;100.00
77583;BME280;66726;52.388;9.986;2023-12-20T02:35:19;100398.44;;;5.53;100.00
77583;BME280;66726;52.388;9.986;2023-12-20T02:37:47;100394.69;;;5.56;100.00
77583;BME280;66726;52.388;9.986;2023-12-20T02:40:17;100396.63;;;5.54;100.00
77583;BME280;66726;52.388;9.986;2023-12-20T02:42:45;100401.94;;;5.54;100.00
77583;BME280;66726;52.388;9.986;2023-12-20T02:45:13;100408.91;;;5.55;100.00
77583;BME280;66726;52.388;9.986;2023-12-20T02:47:41;100404.16;;;5.49;100.00
77583;BME280;66726;52.388;9.986;2023-12-20T02:50:10;100399.97;;;5.46;100.00
77583;BME280;66726;52.388;9.986;2023-12-20T02:52:38;100402.50;;;5.48;100.00
77583;BME280;66726;52.388;9.986;2023-12-20T02:55:06;100397.72;;;5.42;100.00
77583;BME280;66726;52.388;9.986;2023-12-20T02:57:36;100392.41;;;5.42;100.00
77583;BME280;66726;52.388;9.986;2023-12-20T03:00:09;100391.56;;;5.41;100.00
77583;BME280;66726;52.388;9.986;2023-12-20T03:02:38;100388.22;;;5.39;100.00
77583;BME280;66726;52.388;9.986;2023-12-20T03:05:07;100385.09;;;5.34;100.00
77583;BME280;66726;52.388;9.986;2023-12-20T03:07:36;100373.81;;;5.32;100.00
77583;BME280;66726;52.388;9.986;2023-12-20T03:10:06;100390.41;;;5.34;100.00
77583;BME280;66726;52.388;9.986;2023-12-20T03:12:47;100379.81;;;5.34;100.00
77583;BME280;66726;52.388;9.986;2023-12-20T03:15:16;100390.13;;;5.28;100.00
77583;BME280;66726;52.388;9.986;2023-12-20T03:17:44;100385.66;;;5.28;100.00
77583;BME280;66726;52.388;9.986;2023-12-20T03:20:12;100373.38;;;5.27;100.00
77583;BME280;66726;52.388;9.986;2023-12-20T03:22:40;100370.28;;;5.22;100.00
77583;BME280;66726;52.388;9.986;2023-12-20T03:25:09;100368.31;;;5.24;100.00
77583;BME280;66726;52.388;9.986;2023-12-20T03:27:37;100372.09;;;5.22;100.00
77583;BME280;66726;52.388;9.986;2023-12-20T03:30:09;100362.88;;;5.16;100.00
77583;BME280;66726;52.388;9.986;2023-12-20T03:32:38;100357.09;;;5.11;100.00
77583;BME280;66726;52.388;9.986;2023-12-20T03:35:06;100347.50;;;5.10;100.00
77583;BME280;66726;52.388;9.986;2023-12-20T03:37:35;100332.53;;;5.09;100.00
77583;BME280;66726;52.388;9.986;2023-12-20T03:40:04;100336.44;;;5.05;100.00
77583;BME280;66726;52.388;9.986;2023-12-20T03:42:33;100325.81;;;5.05;100.00
77583;BME280;66726;52.388;9.986;2023-12-20T03:45:01;100335.59;;;5.04;100.00
77583;BME280;66726;52.388;9.986;2023-12-20T03:47:30;100333.78;;;5.05;100.00
77583;BME280;66726;52.388;9.986;2023-12-20T03:49:58;100322.31;;;5.04;100.00
77583;BME280;66726;52.388;9.986;2023-12-20T03:52:26;100331.41;;;5.02;100.00
77583;BME280;66726;52.388;9.986;2023-12-20T03:54:55;100328.59;;;5.03;100.00
77583;BME280;66726;52.388;9.986;2023-12-20T03:57:23;100339.47;;;5.00;100.00
77583;BME280;66726;52.388;9.986;2023-12-20T03:59:51;100332.34;;;5.01;100.00
77583;BME280;66726;52.388;9.986;2023-12-20T04:02:19;100327.47;;;4.96;100.00
77583;BME280;66726;52.388;9.986;2023-12-20T04:04:49;100324.25;;;4.93;100.00
77583;BME280;66726;52.388;9.986;2023-12-20T04:07:17;100327.16;;;4.90;100.00
77583;BME280;66726;52.388;9.986;2023-12-20T04:09:45;100326.91;;;4.93;100.00
77583;BME280;66726;52.388;9.986;2023-12-20T04:12:15;100332.22;;;4.93;100.00
77583;BME280;66726;52.388;9.986;2023-12-20T04:14:43;100323.09;;;4.86;100.00
77583;BME280;66726;52.388;9.986;2023-12-20T04:17:11;100334.53;;;4.86;100.00
77583;BME280;66726;52.388;9.986;2023-12-20T04:19:39;100323.22;;;4.84;100.00
77583;BME280;66726;52.388;9.986;2023-12-20T04:22:09;100322.13;;;4.87;100.00
77583;BME280;66726;52.388;9.986;2023-12-20T04:24:37;100328.41;;;4.86;100.00
77583;BME280;66726;52.388;9.986;2023-12-20T04:27:05;100316.81;;;4.87;100.00
77583;BME280;66726;52.388;9.986;2023-12-20T04:29:33;100335.38;;;4.87;100.00
77583;BME280;66726;52.388;9.986;2023-12-20T04:32:02;100322.13;;;4.87;100.00
77583;BME280;66726;52.388;9.986;2023-12-20T04:34:30;100320.47;;;4.86;100.00
77583;BME280;66726;52.388;9.986;2023-12-20T04:36:58;100334.41;;;4.88;100.00
77583;BME280;66726;52.388;9.986;2023-12-20T04:39:28;100317.53;;;4.89;100.00
77583;BME280;66726;52.388;9.986;2023-12-20T04:41:56;100314.88;;;4.89;100.00
77583;BME280;66726;52.388;9.986;2023-12-20T04:44:24;100320.88;;;4.91;100.00
77583;BME280;66726;52.388;9.986;2023-12-20T04:46:53;100315.56;;;4.91;100.00
77583;BME280;66726;52.388;9.986;2023-12-20T04:49:23;100305.69;;;4.93;100.00
77583;BME280;66726;52.388;9.986;2023-12-20T04:51:51;100310.84;;;4.94;100.00
77583;BME280;66726;52.388;9.986;2023-12-20T04:54:19;100305.69;;;4.93;100.00
77583;BME280;66726;52.388;9.986;2023-12-20T04:56:49;100306.50;;;4.93;100.00
77583;BME280;66726;52.388;9.986;2023-12-20T04:59:18;100316.03;;;4.96;100.00
77583;BME280;66726;52.388;9.986;2023-12-20T05:01:46;100314.22;;;4.96;100.00
77583;BME280;66726;52.388;9.986;2023-12-20T05:04:14;100316.59;;;4.99;100.00
77583;BME280;66726;52.388;9.986;2023-12-20T05:06:42;100320.09;;;5.00;100.00
77583;BME280;66726;52.388;9.986;2023-12-20T05:09:10;100318.25;;;5.00;100.00
77583;BME280;66726;52.388;9.986;2023-12-20T05:11:38;100306.56;;;5.03;100.00
77583;BME280;66726;52.388;9.986;2023-12-20T05:14:08;100306.56;;;5.03;100.00
77583;BME280;66726;52.388;9.986;2023-12-20T05:16:36;100300.25;;;5.04;100.00
77583;BME280;66726;52.388;9.986;2023-12-20T05:19:05;100317.16;;;5.03;100.00
77583;BME280;66726;52.388;9.986;2023-12-20T05:21:34;100301.94;;;5.05;100.00
77583;BME280;66726;52.388;9.986;2023-12-20T05:24:03;100300.97;;;5.06;100.00
77583;BME280;66726;52.388;9.986;2023-12-20T05:26:31;100304.31;;;5.08;100.00
77583;BME280;66726;52.388;9.986;2023-12-20T05:28:59;100305.16;;;5.08;100.00
77583;BME280;66726;52.388;9.986;2023-12-20T05:31:29;100301.53;;;5.09;100.00
77583;BME280;66726;52.388;9.986;2023-12-20T05:33:57;100298.72;;;5.11;100.00
77583;BME280;66726;52.388;9.986;2023-12-20T05:36:26;100296.91;;;5.11;100.00
77583;BME280;66726;52.388;9.986;2023-12-20T05:38:55;100302.09;;;5.13;100.00
77583;BME280;66726;52.388;9.986;2023-12-20T05:41:23;100298.44;;;5.14;100.00
77583;BME280;66726;52.388;9.986;2023-12-20T05:43:51;100301.84;;;5.16;100.00
77583;BME280;66726;52.388;9.986;2023-12-20T05:46:19;100299.19;;;5.16;100.00
77583;BME280;66726;52.388;9.986;2023-12-20T05:48:49;100294.00;;;5.15;100.00
77583;BME280;66726;52.388;9.986;2023-12-20T05:51:18;100300.16;;;5.15;100.00
77583;BME280;66726;52.388;9.986;2023-12-20T05:53:46;100286.88;;;5.15;100.00
77583;BME280;66726;52.388;9.986;2023-12-20T05:56:16;100291.50;;;5.13;100.00
77583;BME280;66726;52.388;9.986;2023-12-20T05:58:44;100299.31;;;5.15;100.00
77583;BME280;66726;52.388;9.986;2023-12-20T06:01:14;100302.09;;;5.13;100.00
77583;BME280;66726;52.388;9.986;2023-12-20T06:03:44;100291.22;;;5.16;100.00
77583;BME280;66726;52.388;9.986;2023-12-20T06:06:14;100289.25;;;5.18;100.00
77583;BME280;66726;52.388;9.986;2023-12-20T06:08:43;100285.47;;;5.21;100.00
77583;BME280;66726;52.388;9.986;2023-12-20T06:11:11;100288.28;;;5.19;100.00
77583;BME280;66726;52.388;9.986;2023-12-20T06:13:40;100295.41;;;5.19;100.00
77583;BME280;66726;52.388;9.986;2023-12-20T06:16:08;100289.25;;;5.18;100.00
77583;BME280;66726;52.388;9.986;2023-12-20T06:18:37;100296.25;;;5.19;100.00
77583;BME280;66726;52.388;9.986;2023-12-20T06:21:05;100285.63;;;5.19;100.00
77583;BME280;66726;52.388;9.986;2023-12-20T06:23:35;100293.59;;;5.19;100.00
77583;BME280;66726;52.388;9.986;2023-12-20T06:26:03;100298.06;;;5.19;100.00
77583;BME280;66726;52.388;9.986;2023-12-20T06:28:31;100284.78;;;5.19;100.00
77583;BME280;66726;52.388;9.986;2023-12-20T06:31:00;100286.47;;;5.20;100.00
77583;BME280;66726;52.388;9.986;2023-12-20T06:33:28;100292.63;;;5.20;100.00
77583;BME280;66726;52.388;9.986;2023-12-20T06:35:57;100281.16;;;5.20;100.00
77583;BME280;66726;52.388;9.986;2023-12-20T06:38:26;100285.63;;;5.19;100.00
77583;BME280;66726;52.388;9.986;2023-12-20T06:40:55;100289.97;;;5.20;100.00
77583;BME280;66726;52.388;9.986;2023-12-20T06:43:24;100285.63;;;5.19;100.00
77583;BME280;66726;52.388;9.986;2023-12-20T06:45:57;100277.50;;;5.21;100.00
77583;BME280;66726;52.388;9.986;2023-12-20T06:48:25;100273.06;;;5.21;100.00
77583;BME280;66726;52.388;9.986;2023-12-20T06:50:54;100266.78;;;5.22;100.00
77583;BME280;66726;52.388;9.986;2023-12-20T06:53:22;100282.56;;;5.24;100.00
77583;BME280;66726;52.388;9.986;2023-12-20T06:55:49;100268.59;;;5.22;100.00
77583;BME280;66726;52.388;9.986;2023-12-20T06:58:19;100283.66;;;5.21;100.00
77583;BME280;66726;52.388;9.986;2023-12-20T07:00:47;100282.81;;;5.21;100.00
77583;BME280;66726;52.388;9.986;2023-12-20T07:03:15;100271.41;;;5.20;100.00
77583;BME280;66726;52.388;9.986;2023-12-20T07:05:44;100281.16;;;5.20;100.00
77583;BME280;66726;52.388;9.986;2023-12-20T07:08:12;100274.75;;;5.22;100.00
77583;BME280;66726;52.388;9.986;2023-12-20T07:10:42;100274.75;;;5.22;100.00
77583;BME280;66726;52.388;9.986;2023-12-20T07:13:10;100274.63;;;5.24;100.00
77583;BME280;66726;52.388;9.986;2023-12-20T07:15:41;100271.97;;;5.24;100.00
77583;BME280;66726;52.388;9.986;2023-12-20T07:18:10;100274.75;;;5.22;100.00
77583;BME280;66726;52.388;9.986;2023-12-20T07:20:39;100274.06;;;5.20;100.00
77583;BME280;66726;52.388;9.986;2023-12-20T07:23:07;100271.69;;;5.17;100.00
77583;BME280;66726;52.388;9.986;2023-12-20T07:25:35;100263.84;;;5.16;100.00
77583;BME280;66726;52.388;9.986;2023-12-20T07:28:04;100262.16;;;5.15;100.00
77583;BME280;66726;52.388;9.986;2023-12-20T07:30:33;100247.34;;;5.12;100.00
77583;BME280;66726;52.388;9.986;2023-12-20T07:33:03;100267.03;;;5.09;100.00
77583;BME280;66726;52.388;9.986;2023-12-20T07:35:31;100261.03;;;5.07;100.00
77583;BME280;66726;52.388;9.986;2023-12-20T07:38:00;100274.28;;;5.07;100.00
77583;BME280;66726;52.388;9.986;2023-12-20T07:40:29;100275.84;;;5.10;100.00
77583;BME280;66726;52.388;9.986;2023-12-20T07:42:57;100272.19;;;5.11;100.00
77583;BME280;66726;52.388;9.986;2023-12-20T07:45:25;100281.00;;;5.11;100.00
77583;BME280;66726;52.388;9.986;2023-12-20T07:47:53;100274.72;;;5.13;100.00
77583;BME280;66726;52.388;9.986;2023-12-20T07:50:23;100283.38;;;5.15;100.00
77583;BME280;66726;52.388;9.986;2023-12-20T07:52:51;100280.88;;;5.13;100.00
77583;BME280;66726;52.388;9.986;2023-12-20T07:55:20;100275.28;;;5.16;100.00
77583;BME280;66726;52.388;9.986;2023-12-20T07:57:48;100270.00;;;5.16;100.00
77583;BME280;66726;52.388;9.986;2023-12-20T08:00:17;100263.56;;;5.19;100.00
77583;BME280;66726;52.388;9.986;2023-12-20T08:02:46;100271.53;;;5.19;100.00
77583;BME280;66726;52.388;9.986;2023-12-20T08:05:14;100292.91;;;5.17;100.00
77583;BME280;66726;52.388;9.986;2023-12-20T08:07:46;100270.25;;;5.13;100.00
77583;BME280;66726;52.388;9.986;2023-12-20T08:10:14;100272.19;;;5.11;100.00
77583;BME280;66726;52.388;9.986;2023-12-20T08:12:45;100261.88;;;5.08;100.00
77583;BME280;66726;52.388;9.986;2023-12-20T08:15:14;100276.81;;;5.09;100.00
77583;BME280;66726;52.388;9.986;2023-12-20T08:17:42;100273.44;;;5.07;100.00
77583;BME280;66726;52.388;9.986;2023-12-20T08:20:11;100264.66;;;5.06;100.00
77583;BME280;66726;52.388;9.986;2023-12-20T08:22:47;100274.16;;;5.09;100.00
77583;BME280;66726;52.388;9.986;2023-12-20T08:25:15;100272.47;;;5.08;100.00
77583;BME280;66726;52.388;9.986;2023-12-20T08:27:43;100261.03;;;5.07;100.00
77583;BME280;66726;52.388;9.986;2023-12-20T08:30:12;100252.09;;;5.08;100.00
77583;BME280;66726;52.388;9.986;2023-12-20T08:32:40;100244.97;;;5.09;100.00
77583;BME280;66726;52.388;9.986;2023-12-20T08:35:08;100256.28;;;5.11;100.00
77583;BME280;66726;52.388;9.986;2023-12-20T08:37:37;100254.63;;;5.10;100.00
77583;BME280;66726;52.388;9.986;2023-12-20T08:40:08;100233.13;;;5.13;100.00
77583;BME280;66726;52.388;9.986;2023-12-20T08:42:36;100226.69;;;5.16;100.00
77583;BME280;66726;52.388;9.986;2023-12-20T08:45:05;100230.03;;;5.18;100.00
77583;BME280;66726;52.388;9.986;2023-12-20T08:47:33;100227.94;;;5.21;100.00
77583;BME280;66726;52.388;9.986;2023-12-20T08:50:03;100228.66;;;5.23;100.00
77583;BME280;66726;52.388;9.986;2023-12-20T08:52:31;100224.75;;;5.27;100.00
77583;BME280;66726;52.388;9.986;2023-12-20T08:55:00;100215.66;;;5.30;100.00
77583;BME280;66726;52.388;9.986;2023-12-20T08:57:29;100219.16;;;5.30;100.00
77583;BME280;66726;52.388;9.986;2023-12-20T08:59:58;100211.03;;;5.32;100.00
77583;BME280;66726;52.388;9.986;2023-12-20T09:02:27;100217.19;;;5.32;100.00
77583;BME280;66726;52.388;9.986;2023-12-20T09:04:56;100207.25;;;5.34;100.00
77583;BME280;66726;52.388;9.986;2023-12-20T09:07:25;100206.28;;;5.35;100.00
77583;BME280;66726;52.388;9.986;2023-12-20T09:09:54;100195.56;;;5.37;100.00
77583;BME280;66726;52.388;9.986;2023-12-20T09:12:22;100193.44;;;5.40;100.00
77583;BME280;66726;52.388;9.986;2023-12-20T09:14:52;100201.25;;;5.42;100.00
77583;BME280;66726;52.388;9.986;2023-12-20T09:17:20;100195.66;;;5.45;100.00
77583;BME280;66726;52.388;9.986;2023-12-20T09:19:49;100203.50;;;5.46;100.00
77583;BME280;66726;52.388;9.986;2023-12-20T09:22:19;100190.91;;;5.48;100.00
77583;BME280;66726;52.388;9.986;2023-12-20T09:24:48;100189.66;;;5.52;100.00
77583;BME280;66726;52.388;9.986;2023-12-20T09:27:16;100185.19;;;5.53;100.00
77583;BME280;66726;52.388;9.986;2023-12-20T09:29:44;100180.84;;;5.52;100.00
77583;BME280;66726;52.388;9.986;2023-12-20T09:32:13;100179.03;;;5.52;100.00
77583;BME280;66726;52.388;9.986;2023-12-20T09:34:42;100183.50;;;5.52;100.00
77583;BME280;66726;52.388;9.986;2023-12-20T09:37:10;100188.69;;;5.53;100.00
77583;BME280;66726;52.388;9.986;2023-12-20T09:39:38;100182.53;;;5.53;100.00
77583;BME280;66726;52.388;9.986;2023-12-20T09:42:07;100179.75;;;5.54;100.00
77583;BME280;66726;52.388;9.986;2023-12-20T09:44:35;100183.22;;;5.55;100.00
77583;BME280;66726;52.388;9.986;2023-12-20T09:47:05;100185.06;;;5.54;100.00
77583;BME280;66726;52.388;9.986;2023-12-20T09:49:37;100179.47;;;5.57;100.00
77583;BME280;66726;52.388;9.986;2023-12-20T09:52:09;100172.19;;;5.59;100.00
77583;BME280;66726;52.388;9.986;2023-12-20T09:54:39;100169.25;;;5.62;100.00
77583;BME280;66726;52.388;9.986;2023-12-20T09:57:09;100176.38;;;5.62;100.00
77583;BME280;66726;52.388;9.986;2023-12-20T09:59:37;100158.63;;;5.62;100.00
77583;BME280;66726;52.388;9.986;2023-12-20T10:02:12;100174.13;;;5.67;100.00
77583;BME280;66726;52.388;9.986;2023-12-20T10:04:47;100162.38;;;5.70;100.00
77583;BME280;66726;52.388;9.986;2023-12-20T10:07:16;100150.06;;;5.69;100.00
77583;BME280;66726;52.388;9.986;2023-12-20T10:09:45;100156.78;;;5.73;100.00
77583;BME280;66726;52.388;9.986;2023-12-20T10:12:14;100152.31;;;5.73;100.00
77583;BME280;66726;52.388;9.986;2023-12-20T10:14:42;100163.47;;;5.77;100.00
77583;BME280;66726;52.388;9.986;2023-12-20T10:17:10;100149.22;;;5.78;100.00
77583;BME280;66726;52.388;9.986;2023-12-20T10:19:38;100153.56;;;5.79;100.00
77583;BME280;66726;52.388;9.986;2023-12-20T10:22:08;100129.38;;;5.82;100.00
77583;BME280;66726;52.388;9.986;2023-12-20T10:24:36;100141.66;;;5.83;100.00
77583;BME280;66726;52.388;9.986;2023-12-20T10:27:06;100134.69;;;5.82;100.00
77583;BME280;66726;52.388;9.986;2023-12-20T10:29:35;100122.38;;;5.81;100.00
77583;BME280;66726;52.388;9.986;2023-12-20T10:32:26;100126.28;;;5.86;100.00
77583;BME280;66726;52.388;9.986;2023-12-20T10:34:55;100133.72;;;5.92;100.00
77583;BME280;66726;52.388;9.986;2023-12-20T10:37:25;100117.91;;;5.91;100.00
77583;BME280;66726;52.388;9.986;2023-12-20T10:39:54;100114.56;;;5.89;100.00
77583;BME280;66726;52.388;9.986;2023-12-20T10:42:26;100119.88;;;5.89;100.00
77583;BME280;66726;52.388;9.986;2023-12-20T10:44:55;100114.41;;;5.90;100.00
77583;BME280;66726;52.388;9.986;2023-12-20T10:47:25;100117.75;;;5.92;100.00
77583;BME280;66726;52.388;9.986;2023-12-20T10:49:55;100113.41;;;5.91;100.00
77583;BME280;66726;52.388;9.986;2023-12-20T10:52:26;100111.75;;;5.90;100.00
77583;BME280;66726;52.388;9.986;2023-12-20T10:54:56;100102.94;;;5.90;100.00
77583;BME280;66726;52.388;9.986;2023-12-20T10:57:27;100096.94;;;5.88;100.00
77583;BME280;66726;52.388;9.986;2023-12-20T11:00:00;100097.91;;;5.87;100.00
77583;BME280;66726;52.388;9.986;2023-12-20T11:02:33;100092.59;;;5.87;100.00
77583;BME280;66726;52.388;9.986;2023-12-20T11:05:17;100088.81;;;5.89;100.00
77583;BME280;66726;52.388;9.986;2023-12-20T11:07:59;100079.72;;;5.92;100.00
77583;BME280;66726;52.388;9.986;2023-12-20T11:10:37;100082.94;;;5.95;100.00
77583;BME280;66726;52.388;9.986;2023-12-20T11:13:20;100080.09;;;5.97;100.00
77583;BME280;66726;52.388;9.986;2023-12-20T11:15:49;100081.63;;;5.99;100.00
77583;BME280;66726;52.388;9.986;2023-12-20T11:18:17;100085.13;;;6.00;100.00
77583;BME280;66726;52.388;9.986;2023-12-20T11:20:46;100066.69;;;5.98;100.00
77583;BME280;66726;52.388;9.986;2023-12-20T11:23:15;100070.31;;;5.97;100.00
77583;BME280;66726;52.388;9.986;2023-12-20T11:25:48;100072.84;;;5.99;100.00
77583;BME280;66726;52.388;9.986;2023-12-20T11:28:22;100090.44;;;6.00;100.00
77583;BME280;66726;52.388;9.986;2023-12-20T11:30:52;100090.91;;;5.95;100.00
77583;BME280;66726;52.388;9.986;2023-12-20T11:33:23;100093.84;;;5.92;100.00
77583;BME280;66726;52.388;9.986;2023-12-20T11:35:57;100112.59;;;5.91;100.00
77583;BME280;66726;52.388;9.986;2023-12-20T11:38:26;100096.94;;;5.88;100.00
77583;BME280;66726;52.388;9.986;2023-12-20T11:40:55;100111.19;;;5.87;100.00
77583;BME280;66726;52.388;9.986;2023-12-20T11:43:31;100102.50;;;5.85;100.00
77583;BME280;66726;52.388;9.986;2023-12-20T11:46:04;100096.66;;;5.81;100.00
77583;BME280;66726;52.388;9.986;2023-12-20T11:48:36;100125.88;;;5.81;100.00
77583;BME280;66726;52.388;9.986;2023-12-20T11:51:09;100114.41;;;5.81;100.00
77583;BME280;66726;52.388;9.986;2023-12-20T11:53:40;100108.69;;;5.76;100.00
77583;BME280;66726;52.388;9.986;2023-12-20T11:56:10;100102.97;;;5.71;100.00
77583;BME280;66726;52.388;9.986;2023-12-20T11:58:39;100098.38;;;5.63;100.00
77583;BME280;66726;52.388;9.986;2023-12-20T12:01:08;100119.34;;;5.66;100.00
77583;BME280;66726;52.388;9.986;2023-12-20T12:03:36;100112.34;;;5.65;100.00
77583;BME280;66726;52.388;9.986;2023-12-20T12:06:05;100098.38;;;5.63;100.00
77583;BME280;66726;52.388;9.986;2023-12-20T12:08:35;100104.13;;;5.58;100.00
77583;BME280;66726;52.388;9.986;2023-12-20T12:11:05;100107.06;;;5.55;100.00
77583;BME280;66726;52.388;9.986;2023-12-20T12:13:34;100096.19;;;5.49;100.00
77583;BME280;66726;52.388;9.986;2023-12-20T12:16:03;100092.00;;;5.46;100.00
77583;BME280;66726;52.388;9.986;2023-12-20T12:18:32;100091.88;;;5.48;100.00
77583;BME280;66726;52.388;9.986;2023-12-20T12:21:01;100098.00;;;5.48;100.00
77583;BME280;66726;52.388;9.986;2023-12-20T12:23:39;100097.59;;;5.43;100.00
77583;BME280;66726;52.388;9.986;2023-12-20T12:26:08;100097.31;;;5.46;100.00
77583;BME280;66726;52.388;9.986;2023-12-20T12:28:40;100090.59;;;5.42;100.00
77583;BME280;66726;52.388;9.986;2023-12-20T12:31:13;100108.09;;;5.35;100.00
77583;BME280;66726;52.388;9.986;2023-12-20T12:33:41;100103.75;;;5.34;100.00
77583;BME280;66726;52.388;9.986;2023-12-20T12:36:12;100099.16;;;5.27;100.00
77583;BME280;66726;52.388;9.986;2023-12-20T12:38:42;100097.75;;;5.32;100.00
77583;BME280;66726;52.388;9.986;2023-12-20T12:41:14;100078.88;;;5.35;100.00
77583;BME280;66726;52.388;9.986;2023-12-20T12:43:43;100077.75;;;5.38;100.00
77583;BME280;66726;52.388;9.986;2023-12-20T12:46:11;100073.31;;;5.29;100.00
77583;BME280;66726;52.388;9.986;2023-12-20T12:48:39;100071.78;;;5.26;100.00
77583;BME280;66726;52.388;9.986;2023-12-20T12:51:12;100083.09;;;5.28;100.00
77583;BME280;66726;52.388;9.986;2023-12-20T12:53:41;100080.56;;;5.36;100.00
77583;BME280;66726;52.388;9.986;2023-12-20T12:56:09;100077.56;;;5.58;100.00
77583;BME280;66726;52.388;9.986;2023-12-20T12:58:38;100072.16;;;5.50;100.00
77583;BME280;66726;52.388;9.986;2023-12-20T13:01:07;100080.22;;;5.58;100.00